createdAt,value
2023-01-15T00:02:18.316Z,34.95
2023-01-15T00:04:46.567Z,35.13
2023-01-15T00:07:14.728Z,32.88
2023-01-15T00:09:42.960Z,35.45
2023-01-15T00:12:11.164Z,34.55
2023-01-15T00:14:39.360Z,34.33
2023-01-15T00:17:07.564Z,33.08
2023-01-15T00:19:35.828Z,33.10
2023-01-15T00:22:04.741Z,33.17
2023-01-15T00:24:51.673Z,34.38
2023-01-15T00:27:38.558Z,33.63
2023-01-15T00:30:09.628Z,31.05
2023-01-15T00:32:43.360Z,35.17
2023-01-15T00:35:14.552Z,32.72
2023-01-15T00:37:43.613Z,34.63
2023-01-15T00:40:13.666Z,32.42
2023-01-15T00:42:42.070Z,33.85
2023-01-15T00:45:12.378Z,31.30
2023-01-15T00:47:43.575Z,31.98
2023-01-15T00:50:14.417Z,32.58
2023-01-15T00:52:43.197Z,34.30
2023-01-15T00:55:11.459Z,32.22
2023-01-15T00:57:39.867Z,32.17
2023-01-15T01:00:09.246Z,31.20
2023-01-15T01:02:37.551Z,32.97
2023-01-15T01:05:06.086Z,31.92
2023-01-15T01:07:34.220Z,30.58
2023-01-15T01:10:02.441Z,29.75
2023-01-15T01:12:30.686Z,30.27
2023-01-15T01:14:58.918Z,30.95
2023-01-15T01:17:27.246Z,31.20
2023-01-15T01:19:55.450Z,29.85
2023-01-15T01:22:23.687Z,30.27
2023-01-15T01:24:51.936Z,29.65
2023-01-15T01:27:20.107Z,30.50
2023-01-15T01:29:48.327Z,30.05
2023-01-15T01:32:16.594Z,28.52
2023-01-15T01:34:44.783Z,29.58
2023-01-15T01:37:12.959Z,28.27
2023-01-15T01:39:41.301Z,29.77
2023-01-15T01:42:14.343Z,27.98
2023-01-15T01:44:45.314Z,29.35
2023-01-15T01:47:22.898Z,28.85
2023-01-15T01:49:57.611Z,29.67
2023-01-15T01:52:44.280Z,29.13
2023-01-15T01:55:18.041Z,29.05
2023-01-15T01:57:48.534Z,26.85
2023-01-15T02:00:17.047Z,26.83
2023-01-15T02:02:48.383Z,28.00
2023-01-15T02:05:28.048Z,26.65
2023-01-15T02:07:56.966Z,27.90
2023-01-15T02:10:25.278Z,26.33
2023-01-15T02:13:04.389Z,27.00
2023-01-15T02:15:45.497Z,26.95
2023-01-15T02:18:27.950Z,26.13
2023-01-15T02:21:23.286Z,27.30
2023-01-15T02:24:07.678Z,27.45
2023-01-15T02:26:53.906Z,27.42
2023-01-15T02:29:39.593Z,26.75
2023-01-15T02:32:24.082Z,27.20
2023-01-15T02:35:00.550Z,25.25
2023-01-15T02:37:34.158Z,26.85
2023-01-15T02:40:06.037Z,27.30
2023-01-15T02:42:38.554Z,25.98
2023-01-15T02:45:09.700Z,26.95
2023-01-15T02:47:42.047Z,26.00
2023-01-15T02:50:14.972Z,25.73
2023-01-15T02:52:49.781Z,25.35
2023-01-15T02:55:37.164Z,25.77
2023-01-15T02:58:11.328Z,25.98
2023-01-15T03:00:48.501Z,24.73
2023-01-15T03:03:42.096Z,23.10
2023-01-15T03:06:19.236Z,22.23
2023-01-15T03:08:48.314Z,21.90
2023-01-15T03:11:19.559Z,22.13
2023-01-15T03:14:14.851Z,22.33
2023-01-15T03:16:53.950Z,21.40
2023-01-15T03:19:34.136Z,23.60
2023-01-15T03:22:09.928Z,21.83
2023-01-15T03:25:11.782Z,22.92
2023-01-15T03:27:45.812Z,23.73
2023-01-15T03:30:22.524Z,22.20
2023-01-15T03:32:54.015Z,22.45
2023-01-15T03:35:51.405Z,23.73
2023-01-15T03:38:36.721Z,23.95
2023-01-15T03:41:15.071Z,22.38
2023-01-15T03:44:14.641Z,23.75
2023-01-15T03:47:10.594Z,22.63
2023-01-15T03:49:43.447Z,24.67
2023-01-15T03:52:46.411Z,23.02
2023-01-15T03:55:38.784Z,22.75
2023-01-15T03:58:21.900Z,23.33
2023-01-15T04:00:55.392Z,20.77
2023-01-15T04:03:26.979Z,21.30
2023-01-15T04:05:59.117Z,21.00
2023-01-15T04:08:38.054Z,21.65
2023-01-15T04:11:06.690Z,22.92
2023-01-15T04:13:42.640Z,23.42
2023-01-15T04:16:32.578Z,21.70
2023-01-15T04:19:01.140Z,22.23
2023-01-15T04:21:31.009Z,23.35
2023-01-15T04:23:59.121Z,22.27
2023-01-15T04:26:27.365Z,23.77
2023-01-15T04:28:56.245Z,22.05
2023-01-15T04:31:24.683Z,22.35
2023-01-15T04:33:52.947Z,23.00
2023-01-15T04:36:21.252Z,21.90
2023-01-15T04:38:49.397Z,22.92
2023-01-15T04:41:36.175Z,21.88
2023-01-15T04:44:07.215Z,21.55
2023-01-15T04:46:40.969Z,22.80
2023-01-15T04:49:15.987Z,23.52
2023-01-15T04:51:45.286Z,23.00
2023-01-15T04:54:15.927Z,23.00
2023-01-15T04:56:47.167Z,22.60
2023-01-15T04:59:17.970Z,23.90
2023-01-15T05:02:02.572Z,22.13
2023-01-15T05:04:33.064Z,21.75
2023-01-15T05:07:05.541Z,21.73
2023-01-15T05:09:34.004Z,20.23
2023-01-15T05:12:02.353Z,20.45
2023-01-15T05:14:30.597Z,20.10
2023-01-15T05:16:58.875Z,19.88
2023-01-15T05:19:27.148Z,18.92
2023-01-15T05:21:55.397Z,21.33
2023-01-15T05:24:24.128Z,19.48
2023-01-15T05:26:52.425Z,19.45
2023-01-15T05:29:20.696Z,19.27
2023-01-15T05:31:48.850Z,17.63
2023-01-15T05:34:17.044Z,18.80
2023-01-15T05:36:45.209Z,18.38
2023-01-15T05:39:13.449Z,17.08
2023-01-15T05:41:51.778Z,18.08
2023-01-15T05:44:28.242Z,17.08
2023-01-15T05:46:59.383Z,18.33
2023-01-15T05:49:31.250Z,17.67
2023-01-15T05:52:01.146Z,17.67
2023-01-15T05:54:34.839Z,17.80
2023-01-15T05:57:03.535Z,17.05
2023-01-15T05:59:33.876Z,17.45
2023-01-15T06:02:02.109Z,17.55
2023-01-15T06:04:30.634Z,17.77
2023-01-15T06:06:59.383Z,16.13
2023-01-15T06:09:29.512Z,17.42
2023-01-15T06:11:57.953Z,19.10
2023-01-15T06:14:26.278Z,17.98
2023-01-15T06:16:54.462Z,16.70
2023-01-15T06:19:22.673Z,17.33
2023-01-15T06:21:50.970Z,16.10
2023-01-15T06:24:20.169Z,14.45
2023-01-15T06:26:48.501Z,14.63
2023-01-15T06:29:18.981Z,15.05
2023-01-15T06:31:48.174Z,15.23
2023-01-15T06:34:16.603Z,15.10
2023-01-15T06:36:44.783Z,14.40
2023-01-15T06:39:13.077Z,15.13
2023-01-15T06:42:00.026Z,14.73
2023-01-15T06:44:47.188Z,15.85
2023-01-15T06:47:21.078Z,15.85
2023-01-15T06:49:55.802Z,15.57
2023-01-15T06:52:26.071Z,15.40
2023-01-15T06:54:54.635Z,15.90
2023-01-15T06:57:22.832Z,15.68
2023-01-15T06:59:52.034Z,16.80
2023-01-15T07:02:21.838Z,15.32
2023-01-15T07:04:50.837Z,15.32
2023-01-15T07:07:20.911Z,15.27
2023-01-15T07:09:52.884Z,14.60
2023-01-15T07:12:21.810Z,14.70
2023-01-15T07:14:50.034Z,16.08
2023-01-15T07:17:18.347Z,15.63
2023-01-15T07:19:47.111Z,14.57
2023-01-15T07:22:15.334Z,15.27
2023-01-15T07:24:43.534Z,16.52
2023-01-15T07:27:11.654Z,15.50
2023-01-15T07:29:39.858Z,16.52
2023-01-15T07:32:08.201Z,16.55
2023-01-15T07:34:36.633Z,17.58
2023-01-15T07:37:04.865Z,16.75
2023-01-15T07:39:33.282Z,19.23
2023-01-15T07:42:19.957Z,16.95
2023-01-15T07:45:06.879Z,16.80
2023-01-15T07:47:53.593Z,17.15
2023-01-15T07:50:24.115Z,15.80
2023-01-15T07:52:53.366Z,16.85
2023-01-15T07:55:23.559Z,16.80
2023-01-15T07:57:53.746Z,16.33
2023-01-15T08:00:24.213Z,16.60
2023-01-15T08:02:52.782Z,16.52
2023-01-15T08:05:21.408Z,17.88
2023-01-15T08:07:50.581Z,17.98
2023-01-15T08:10:19.915Z,17.38
2023-01-15T08:13:09.466Z,16.92
2023-01-15T08:15:43.428Z,16.15
2023-01-15T08:18:11.858Z,15.70
2023-01-15T08:20:40.248Z,16.45
2023-01-15T08:23:10.674Z,15.98
2023-01-15T08:25:39.226Z,16.40
2023-01-15T08:28:07.800Z,16.10
2023-01-15T08:30:36.311Z,17.42
2023-01-15T08:33:04.809Z,16.55
2023-01-15T08:35:34.490Z,16.67
2023-01-15T08:38:07.237Z,16.95
2023-01-15T08:40:56.694Z,16.05
2023-01-15T08:43:28.569Z,16.38
2023-01-15T08:46:01.566Z,16.58
2023-01-15T08:48:31.479Z,17.77
2023-01-15T08:51:04.112Z,17.98
2023-01-15T08:53:32.540Z,17.60
2023-01-15T08:56:00.898Z,18.25
2023-01-15T08:58:31.478Z,18.10
2023-01-15T09:01:07.741Z,17.50
2023-01-15T09:03:36.933Z,18.20
2023-01-15T09:06:06.087Z,19.75
2023-01-15T09:08:34.838Z,17.50
2023-01-15T09:11:04.895Z,18.65
2023-01-15T09:13:33.238Z,18.25
2023-01-15T09:16:03.010Z,17.25
2023-01-15T09:18:35.668Z,18.20
2023-01-15T09:21:04.263Z,18.38
2023-01-15T09:23:33.226Z,17.65
2023-01-15T09:26:07.225Z,18.17
2023-01-15T09:28:36.097Z,17.98
2023-01-15T09:31:04.438Z,17.52
2023-01-15T09:33:32.600Z,21.13
2023-01-15T09:36:00.827Z,20.02
2023-01-15T09:38:28.978Z,19.35
2023-01-15T09:41:00.677Z,16.85
2023-01-15T09:43:55.023Z,16.45
2023-01-15T09:46:37.779Z,17.00
2023-01-15T09:49:40.907Z,17.57
2023-01-15T09:52:28.257Z,17.10
2023-01-15T09:55:05.041Z,17.00
2023-01-15T09:57:34.721Z,17.42
2023-01-15T10:00:06.213Z,18.42
2023-01-15T10:03:06.999Z,17.65
2023-01-15T10:05:52.738Z,18.20
2023-01-15T10:08:35.998Z,17.30
2023-01-15T10:11:18.819Z,17.13
2023-01-15T10:13:50.071Z,18.25
2023-01-15T10:16:27.659Z,17.73
2023-01-15T10:18:58.376Z,17.88
2023-01-15T10:21:51.835Z,18.70
2023-01-15T10:24:32.655Z,17.45
2023-01-15T10:27:05.144Z,17.63
2023-01-15T10:30:11.819Z,17.87
2023-01-15T10:33:06.833Z,18.25
2023-01-15T10:35:53.096Z,20.23
2023-01-15T10:38:38.841Z,19.33
2023-01-15T10:41:12.894Z,20.55
2023-01-15T10:44:20.868Z,20.42
2023-01-15T10:47:00.427Z,19.25
2023-01-15T10:49:33.159Z,21.58
2023-01-15T10:52:27.039Z,18.83
2023-01-15T10:57:42.226Z,20.00
2023-01-15T11:00:11.995Z,21.65
2023-01-15T11:02:57.071Z,21.35
2023-01-15T11:05:25.822Z,21.38
2023-01-15T11:08:45.166Z,21.33
2023-01-15T11:10:43.842Z,20.08
2023-01-15T11:13:41.684Z,18.42
2023-01-15T11:16:44.366Z,20.55
2023-01-15T11:19:43.862Z,20.98
2023-01-15T11:22:19.811Z,20.92
2023-01-15T11:24:55.107Z,20.67
2023-01-15T11:27:34.078Z,21.75
2023-01-15T11:30:05.922Z,21.13
2023-01-15T11:32:37.001Z,21.27
2023-01-15T11:35:25.889Z,21.20
2023-01-15T11:38:14.493Z,20.23
2023-01-15T11:40:53.756Z,21.70
2023-01-15T11:43:43.103Z,21.92
2023-01-15T11:46:50.061Z,20.25
2023-01-15T11:49:38.818Z,21.60
2023-01-15T11:52:23.078Z,21.02
2023-01-15T11:54:54.906Z,22.38
2023-01-15T11:57:32.948Z,22.05
2023-01-15T12:00:04.212Z,22.38
2023-01-15T12:02:47.170Z,23.10
2023-01-15T12:05:21.074Z,21.27
2023-01-15T12:07:53.161Z,24.75
2023-01-15T12:10:59.926Z,23.70
2023-01-15T12:13:43.582Z,23.20
2023-01-15T12:19:44.484Z,23.52
2023-01-15T12:25:05.054Z,24.48
2023-01-15T12:27:55.252Z,25.98
2023-01-15T12:30:27.287Z,26.73
2023-01-15T12:33:13.020Z,27.90
2023-01-15T12:35:56.253Z,27.15
2023-01-15T12:38:50.693Z,27.88
2023-01-15T12:41:53.992Z,26.52
2023-01-15T12:44:50.521Z,26.70
2023-01-15T12:47:27.987Z,27.58
2023-01-15T12:50:06.624Z,28.02
2023-01-15T12:52:40.433Z,27.05
2023-01-15T12:55:28.205Z,26.42
2023-01-15T12:58:00.599Z,28.67
2023-01-15T13:00:42.165Z,26.33
2023-01-15T13:03:16.677Z,26.73
2023-01-15T13:05:50.746Z,27.00
2023-01-15T13:08:37.190Z,26.42
2023-01-15T13:11:07.477Z,26.67
2023-01-15T13:13:41.853Z,28.92
2023-01-15T13:16:23.537Z,28.35
2023-01-15T13:19:29.379Z,28.75
2023-01-15T13:22:01.673Z,28.50
2023-01-15T13:24:48.663Z,31.23
2023-01-15T13:27:22.929Z,30.65
2023-01-15T13:30:17.023Z,30.20
2023-01-15T13:32:56.535Z,31.75
2023-01-15T13:35:40.859Z,29.67
2023-01-15T13:38:20.315Z,30.05
2023-01-15T13:40:53.124Z,31.45
2023-01-15T13:43:42.931Z,29.45
2023-01-15T13:46:19.189Z,29.65
2023-01-15T13:48:51.262Z,29.25
2023-01-15T13:51:39.202Z,29.00
2023-01-15T13:54:15.655Z,31.35
2023-01-15T13:56:45.665Z,29.75
2023-01-15T13:59:47.543Z,32.17
2023-01-15T14:02:27.618Z,30.13
2023-01-15T14:04:56.755Z,31.13
2023-01-15T14:07:36.749Z,31.25
2023-01-15T14:10:35.774Z,30.70
2023-01-15T14:13:17.210Z,30.25
2023-01-15T14:15:50.965Z,31.35
2023-01-15T14:18:57.073Z,32.47
2023-01-15T14:21:54.729Z,31.98
2023-01-15T14:24:36.634Z,30.65
2023-01-15T14:27:38.925Z,29.30
2023-01-15T14:30:29.396Z,30.88
2023-01-15T14:33:16.215Z,35.17
2023-01-15T14:35:49.054Z,33.10
2023-01-15T14:38:24.041Z,34.83
2023-01-15T14:41:03.432Z,33.88
2023-01-15T14:43:35.889Z,35.15
2023-01-15T14:46:28.117Z,33.57
2023-01-15T14:48:56.540Z,36.00
2023-01-15T14:51:28.884Z,34.20
2023-01-15T14:54:03.235Z,37.15
2023-01-15T14:56:32.846Z,35.92
2023-01-15T14:59:21.923Z,37.80
2023-01-15T15:01:57.055Z,37.38
2023-01-15T15:04:33.749Z,38.45
2023-01-15T15:07:07.211Z,38.70
2023-01-15T15:09:53.310Z,38.72
2023-01-15T15:12:44.186Z,38.88
2023-01-15T15:15:18.443Z,36.40
2023-01-15T15:17:52.836Z,41.45
2023-01-15T15:20:33.947Z,38.35
2023-01-15T15:23:32.240Z,41.67
2023-01-15T15:26:03.706Z,39.90
2023-01-15T15:28:31.990Z,39.90
2023-01-15T15:31:01.825Z,38.72
2023-01-15T15:33:40.440Z,39.17
2023-01-15T15:36:09.574Z,40.75
2023-01-15T15:38:41.747Z,38.83
2023-01-15T15:41:12.875Z,35.80
2023-01-15T15:44:14.353Z,37.80
2023-01-15T15:47:08.735Z,38.17
2023-01-15T15:49:43.247Z,38.45
2023-01-15T15:52:25.929Z,39.97
2023-01-15T15:55:01.519Z,39.13
2023-01-15T15:57:33.617Z,39.28
2023-01-15T16:00:02.462Z,38.80
2023-01-15T16:02:41.469Z,40.30
2023-01-15T16:05:28.975Z,41.92
2023-01-15T16:08:07.262Z,42.13
2023-01-15T16:10:36.069Z,44.08
2023-01-15T16:13:07.450Z,45.67
2023-01-15T16:15:40.168Z,42.90
2023-01-15T16:18:28.002Z,39.75
2023-01-15T16:20:58.057Z,38.88
2023-01-15T16:23:29.482Z,40.28
2023-01-15T16:25:57.722Z,39.45
2023-01-15T16:28:31.335Z,37.45
2023-01-15T16:31:02.609Z,38.08
2023-01-15T16:33:31.365Z,37.05
2023-01-15T16:36:04.616Z,39.50
2023-01-15T16:41:02.299Z,40.03
2023-01-15T16:43:32.148Z,40.85
2023-01-15T16:46:19.631Z,40.15
2023-01-15T16:48:49.186Z,40.47
2023-01-15T16:51:35.890Z,41.30
2023-01-15T16:54:05.959Z,41.15
2023-01-15T16:56:40.478Z,42.30
2023-01-15T16:59:41.622Z,42.78
2023-01-15T17:02:14.711Z,41.85
2023-01-15T17:04:45.566Z,42.08
2023-01-15T17:07:26.031Z,41.88
2023-01-15T17:09:56.926Z,41.90
2023-01-15T17:12:35.873Z,43.58
2023-01-15T17:15:16.335Z,42.25
2023-01-15T17:17:47.288Z,44.17
2023-01-15T17:20:19.024Z,41.45
2023-01-15T17:22:50.998Z,41.08
2023-01-15T17:25:34.613Z,41.08
2023-01-15T17:28:06.054Z,41.50
2023-01-15T17:30:34.814Z,43.15
2023-01-15T17:33:05.777Z,42.85
2023-01-15T17:35:36.796Z,45.08
2023-01-15T17:38:07.404Z,44.92
2023-01-15T17:40:35.669Z,46.97
2023-01-15T17:43:09.127Z,44.88
2023-01-15T17:45:37.332Z,43.72
2023-01-15T17:48:08.920Z,41.35
2023-01-15T17:50:38.284Z,41.58
2023-01-15T17:53:06.986Z,41.83
2023-01-15T17:55:56.753Z,40.38
2023-01-15T17:58:43.478Z,41.47
2023-01-15T18:01:42.918Z,40.72
2023-01-15T18:05:02.706Z,43.50
2023-01-15T18:07:36.030Z,43.80
2023-01-15T18:10:06.242Z,38.60
2023-01-15T18:12:34.692Z,39.88
2023-01-15T18:15:02.912Z,40.05
2023-01-15T18:17:31.833Z,40.22
2023-01-15T18:20:00.167Z,41.70
2023-01-15T18:22:29.799Z,39.13
2023-01-15T18:24:58.018Z,36.70
2023-01-15T18:27:30.059Z,38.60
2023-01-15T18:29:59.414Z,35.63
2023-01-15T18:32:30.759Z,34.65
2023-01-15T18:34:59.011Z,33.88
2023-01-15T18:37:27.203Z,33.13
2023-01-15T18:39:55.436Z,31.67
2023-01-15T18:42:43.517Z,31.70
2023-01-15T18:45:31.481Z,32.10
2023-01-15T18:48:03.140Z,32.70
2023-01-15T18:50:31.294Z,33.03
2023-01-15T18:52:59.683Z,33.63
2023-01-15T18:55:28.088Z,29.80
2023-01-15T18:57:57.218Z,32.55
2023-01-15T19:00:25.626Z,30.08
2023-01-15T19:02:53.862Z,34.15
2023-01-15T19:05:22.184Z,34.78
2023-01-15T19:07:50.530Z,35.40
2023-01-15T19:10:19.357Z,36.92
2023-01-15T19:12:47.652Z,33.60
2023-01-15T19:15:37.704Z,33.85
2023-01-15T19:18:24.986Z,31.83
2023-01-15T19:20:53.174Z,31.38
2023-01-15T19:23:21.734Z,30.05
2023-01-15T19:25:52.958Z,30.30
2023-01-15T19:28:21.827Z,29.70
2023-01-15T19:31:09.684Z,28.30
2023-01-15T19:33:38.239Z,29.35
2023-01-15T19:36:07.287Z,30.25
2023-01-15T19:38:42.091Z,30.80
2023-01-15T19:41:44.517Z,30.50
2023-01-15T19:44:33.822Z,29.70
2023-01-15T19:47:22.331Z,30.90
2023-01-15T19:50:09.070Z,29.40
2023-01-15T19:52:38.131Z,30.77
2023-01-15T19:55:10.706Z,29.77
2023-01-15T19:57:39.727Z,30.13
2023-01-15T20:00:11.050Z,32.40
2023-01-15T20:02:40.245Z,32.05
2023-01-15T20:05:10.588Z,32.65
2023-01-15T20:07:38.986Z,30.08
2023-01-15T20:10:11.488Z,53.80
2023-01-15T20:12:59.817Z,36.63
2023-01-15T20:15:29.142Z,33.90
2023-01-15T20:17:58.289Z,31.73
2023-01-15T20:20:27.045Z,34.58
2023-01-15T20:22:57.966Z,34.35
2023-01-15T20:25:27.941Z,33.65
2023-01-15T20:27:57.808Z,31.65
2023-01-15T20:30:27.070Z,31.60
2023-01-15T20:32:58.381Z,32.25
2023-01-15T20:35:33.737Z,32.05
2023-01-15T20:38:02.136Z,30.80
2023-01-15T20:40:30.474Z,30.98
2023-01-15T20:43:17.434Z,31.50
2023-01-15T20:45:45.699Z,29.05
2023-01-15T20:48:13.941Z,30.17
2023-01-15T20:51:02.725Z,31.60
2023-01-15T20:53:34.868Z,30.45
2023-01-15T20:56:04.580Z,32.38
2023-01-15T20:58:36.963Z,32.15
2023-01-15T21:01:11.335Z,31.05
2023-01-15T21:03:40.109Z,31.52
2023-01-15T21:06:09.196Z,31.38
2023-01-15T21:08:37.627Z,30.27
2023-01-15T21:11:05.923Z,29.88
2023-01-15T21:13:34.176Z,31.02
2023-01-15T21:16:05.165Z,29.20
2023-01-15T21:18:39.009Z,28.20
2023-01-15T21:21:15.362Z,29.30
2023-01-15T21:23:46.640Z,28.90
2023-01-15T21:26:16.309Z,28.65
2023-01-15T21:28:45.143Z,27.30
2023-01-15T21:31:14.442Z,29.23
2023-01-15T21:33:42.717Z,28.30
2023-01-15T21:36:13.446Z,26.98
2023-01-15T21:38:42.170Z,27.65
2023-01-15T21:41:14.550Z,26.02
2023-01-15T21:44:02.020Z,25.03
2023-01-15T21:46:30.838Z,26.73
2023-01-15T21:48:59.698Z,24.45
2023-01-15T21:51:28.547Z,24.08
2023-01-15T21:54:00.026Z,24.90
2023-01-15T21:56:28.577Z,23.65
2023-01-15T21:58:57.205Z,27.33
2023-01-15T22:01:26.616Z,24.55
2023-01-15T22:03:54.980Z,25.20
2023-01-15T22:06:24.313Z,24.55
2023-01-15T22:08:56.497Z,24.45
2023-01-15T22:11:43.628Z,24.60
2023-01-15T22:14:23.852Z,24.13
2023-01-15T22:16:53.907Z,22.52
2023-01-15T22:19:24.457Z,24.20
2023-01-15T22:21:57.179Z,23.15
2023-01-15T22:24:31.023Z,23.42
2023-01-15T22:27:06.455Z,24.55
2023-01-15T22:29:38.379Z,24.10
2023-01-15T22:32:08.863Z,23.27
2023-01-15T22:34:37.146Z,23.42
2023-01-15T22:37:08.396Z,23.08
2023-01-15T22:39:38.605Z,22.88
2023-01-15T22:42:24.935Z,23.73
2023-01-15T22:44:53.739Z,24.55
2023-01-15T22:47:22.133Z,22.30
2023-01-15T22:49:50.880Z,22.67
2023-01-15T22:52:20.724Z,22.27
2023-01-15T22:54:48.883Z,21.08
2023-01-15T22:57:17.317Z,21.67
2023-01-15T22:59:45.715Z,21.35
2023-01-15T23:02:14.270Z,22.05
2023-01-15T23:04:43.307Z,19.88
2023-01-15T23:07:11.446Z,19.85
2023-01-15T23:09:39.816Z,21.63
2023-01-15T23:12:08.235Z,22.33
2023-01-15T23:14:36.431Z,24.15
2023-01-15T23:17:04.771Z,21.00
2023-01-15T23:19:33.968Z,21.42
2023-01-15T23:22:02.189Z,20.83
2023-01-15T23:24:30.380Z,20.58
2023-01-15T23:26:58.688Z,20.88
2023-01-15T23:29:26.967Z,21.38
2023-01-15T23:31:55.193Z,20.13
2023-01-15T23:34:23.571Z,23.92
2023-01-15T23:36:51.724Z,20.70
2023-01-15T23:39:19.969Z,20.88
2023-01-15T23:42:06.504Z,21.95
2023-01-15T23:44:53.069Z,21.30
2023-01-15T23:47:21.242Z,19.40
2023-01-15T23:49:49.432Z,21.05
2023-01-15T23:52:17.584Z,20.95
2023-01-15T23:54:45.766Z,19.85
2023-01-15T23:57:14.275Z,19.17
2023-01-15T23:59:43.911Z,20.10
